TimeEST,TemperatureF,Dew PointF,Humidity,Sea Level PressureIn,VisibilityMPH,Wind Direction,Wind SpeedMPH,Gust SpeedMPH,PrecipitationIn,Events,Conditions,WindDirDegrees,DateUTC
12:53 AM,75.0,70.0,84,29.83,10.0,SSE,8.1,-,N/A,,Mostly Cloudy,160,2013-02-26 05:53:00
1:53 AM,75.0,71.1,87,29.81,10.0,SSE,10.4,-,N/A,,Scattered Clouds,160,2013-02-26 06:53:00
2:53 AM,75.0,72.0,90,29.81,10.0,SSE,11.5,-,N/A,,Mostly Cloudy,160,2013-02-26 07:53:00
3:53 AM,75.9,71.1,85,29.81,10.0,South,12.7,-,N/A,,Mostly Cloudy,180,2013-02-26 08:53:00
4:53 AM,75.9,70.0,82,29.81,10.0,South,10.4,-,N/A,,Mostly Cloudy,180,2013-02-26 09:53:00
5:53 AM,75.0,70.0,84,29.82,10.0,South,9.2,-,N/A,,Mostly Cloudy,180,2013-02-26 10:53:00
6:53 AM,75.0,70.0,84,29.83,10.0,South,9.2,-,N/A,,Mostly Cloudy,180,2013-02-26 11:53:00
7:53 AM,75.9,70.0,82,29.86,10.0,South,9.2,-,N/A,,Mostly Cloudy,180,2013-02-26 12:53:00
8:53 AM,79.0,71.1,77,29.87,10.0,South,10.4,-,N/A,,Scattered Clouds,180,2013-02-26 13:53:00
9:53 AM,82.0,68.0,62,29.88,10.0,South,15.0,-,N/A,,Scattered Clouds,190,2013-02-26 14:53:00
10:53 AM,82.0,70.0,67,29.86,10.0,South,15.0,21.9,N/A,,Mostly Cloudy,180,2013-02-26 15:53:00
11:53 AM,84.9,66.0,53,29.88,10.0,SW,16.1,21.9,N/A,,Mostly Cloudy,220,2013-02-26 16:53:00
12:53 PM,86.0,66.0,51,29.85,10.0,SSW,16.1,26.5,0.00,,Mostly Cloudy,210,2013-02-26 17:53:00
1:53 PM,87.1,64.9,48,29.81,10.0,SSW,20.7,28.8,N/A,,Mostly Cloudy,200,2013-02-26 18:53:00
2:53 PM,87.1,66.0,49,29.80,10.0,SW,23.0,32.2,N/A,,Mostly Cloudy,220,2013-02-26 19:53:00
3:53 PM,82.9,66.9,58,29.80,10.0,SSW,23.0,28.8,N/A,,Mostly Cloudy,210,2013-02-26 20:53:00
4:53 PM,79.0,70.0,74,29.82,10.0,SSW,12.7,-,0.00,Rain,Light Rain,210,2013-02-26 21:53:00
5:53 PM,81.0,68.0,65,29.83,10.0,SSW,15.0,27.6,0.00,,Mostly Cloudy,210,2013-02-26 22:53:00
6:53 PM,79.0,68.0,69,29.85,10.0,SW,16.1,-,0.00,,Mostly Cloudy,220,2013-02-26 23:53:00
7:53 PM,78.1,68.0,71,29.86,10.0,SSW,11.5,-,N/A,,Mostly Cloudy,210,2013-02-27 00:53:00
8:53 PM,77.0,69.1,76,29.88,10.0,SSW,10.4,-,N/A,,Scattered Clouds,210,2013-02-27 01:53:00
9:53 PM,77.0,70.0,79,29.89,10.0,SSW,9.2,-,N/A,,Scattered Clouds,210,2013-02-27 02:53:00
10:53 PM,75.9,70.0,82,29.88,10.0,SSW,10.4,-,N/A,,Partly Cloudy,200,2013-02-27 03:53:00
11:53 PM,75.9,71.1,85,29.88,10.0,SW,8.1,-,N/A,,Mostly Cloudy,220,2013-02-27 04:53:00